Terminal Aerodrome Forecast
Issued by NWS Shreveport, LA

Home | Current Version | Previous Version | Text Only | Print | Product List | Glossary On
Versions: 1 2 3 4 5 6 7 8 9 10 11 12 13
155
FTUS44 KSHV 061133
TAFTXK
TAF
KTXK 061133Z 0612/0712 13004KT P6SM SCT060 BKN120
      TEMPO 0615/0617 -RA BKN050
     FM061800 VRB04KT P6SM SKC=

USA.gov is the U.S. government's official web portal to all federal, state and local government web resources and services.